Reliance, Texas
Current Conditions -  °F | °C
As of 9:53 PM on Friday 24 Oct 2014 (Local Time) from KCLL Reporting Station
Clear Clear  
Wind Chill: 70°   Ceiling: Unl
Heat Index: 70°   Visibility: 10mi
Dew Point: 58°   Wind: 5mph
Humidity: 65%   Direction: 110°ESE
Pressure: 30.13"   Gusts: NA
Location:  30.6361°N, 96.3666°W
Report Text: KCLL 250253Z AUTO 11004KT 10SM CLR 21/14 A3013 RMK AO2 SLP201 T02110144 51014
Loading
Personal Weather Stations






























Interactive Weather Map New forecast layout! Learn more

10-Day Weather Forecast

Advertisements
Track Severe Weather on mobile